Viking Star — LAIW6 — position and weather

sailwx.info

Track history (hours):
 
Tides and Currents Weather Stations Pressure Air Temp Water Temp Dewpoint Dewpoint Depression Visibility Wind Speed Wind Dir Waves Ship Positions

Viking Star

Last reported at 2020-Jan-19 16:29 UTC. Time now 2020-Jan-19 16:39 UTC.
Position N 68°26' E 017°25'.

Length 228 m; draft 6.8 m.

Type: Passenger vessel. MMSI: 257903000.

Date/timePositionNaut miles runAvg speedWind from/ knotsBaromVisibWave heightAir tempDewpointWater temp
2020-Jan-19 16:29N 68°26' E 017°25'0 0.0
2020-Jan-19 12:59N 68°26' E 017°25'0 0.0
2020-Jan-19 10:59N 68°26' E 017°25'0 0.0
2020-Jan-19 10:29N 68°26' E 017°25'0 0.0
2020-Jan-19 09:59N 68°26' E 017°25'0 0.0
2020-Jan-19 08:29N 68°26' E 017°25'1 0.5
2020-Jan-19 06:30N 68°26' E 017°22'2110.7
2020-Jan-19 04:30N 68°25' E 016°25'8 8.2
2020-Jan-19 03:30N 68°25' E 016°02'2811.1
2020-Jan-19 01:00N 68°47' E 016°48'815.2
2020-Jan-19 00:30N 68°54' E 016°59'3212.9
2020-Jan-18 22:00N 69°18' E 017°58'611.5
2020-Jan-18 21:30N 69°23' E 018°06'1313.0
2020-Jan-18 20:30N 69°32' E 018°32'1312.6
2020-Jan-18 19:30N 69°42' E 018°55'2516.3
2020-Jan-18 18:00N 69°55' E 019°56'917.0
2020-Jan-18 17:30N 69°60' E 020°16'1615.9
2020-Jan-18 16:30N 70°07' E 020°58'1616.4
2020-Jan-18 15:30N 70°19' E 021°28'816.2
2020-Jan-18 15:00N 70°24' E 021°48'2718.0
2020-Jan-18 13:30N 70°12' E 023°00'15 5.0
2020-Jan-18 10:29N 69°59' E 023°20'0 0.0
2020-Jan-18 09:59N 69°59' E 023°20'0 0.0
2020-Jan-18 06:29N 69°59' E 023°20'0 0.0
2020-Jan-18 05:59N 69°59' E 023°20'0 0.0
2020-Jan-18 03:59N 69°59' E 023°20'0 0.0
2020-Jan-18 01:59N 69°59' E 023°20'0 0.0
2020-Jan-18 00:59N 69°59' E 023°20'0 0.0
2020-Jan-17 23:59N 69°59' E 023°20'0 0.0
2020-Jan-17 19:59N 69°59' E 023°20'0 0.0
2020-Jan-17 18:29N 69°59' E 023°20'0 0.0
2020-Jan-17 17:29N 69°59' E 023°20'0 0.0
2020-Jan-17 16:29N 69°59' E 023°20'0 0.0
2020-Jan-17 14:59N 69°59' E 023°20'0 0.0
2020-Jan-17 11:29N 69°59' E 023°20'0 0.0
2020-Jan-17 08:29N 69°59' E 023°20'0 0.0
2020-Jan-17 07:00N 69°59' E 023°20'12 6.1
2020-Jan-17 05:00N 70°10' E 023°03'713.8
2020-Jan-17 04:30N 70°14' E 022°48'816.0
2020-Jan-17 04:00N 70°17' E 022°25'2114.1
2020-Jan-17 02:30N 70°17' E 021°22'3517.8
2020-Jan-17 00:30N 69°55' E 019°60'27 3.8
2020-Jan-16 17:26N 69°39' E 018°58'0 0.0
2020-Jan-16 16:59N 69°39' E 018°58'0 0.0
2020-Jan-16 13:59N 69°39' E 018°58'0 0.0
2020-Jan-16 12:59N 69°39' E 018°58'0 0.0
2020-Jan-16 12:29N 69°39' E 018°58'0 0.0
2020-Jan-16 11:59N 69°39' E 018°58'0 0.0
2020-Jan-16 10:59N 69°39' E 018°58'0 0.0
2020-Jan-16 09:29N 69°39' E 018°58'0 0.0
2020-Jan-16 08:29N 69°39' E 018°58'0 0.0
2020-Jan-16 04:29N 69°39' E 018°58'0 0.0
2020-Jan-16 03:59N 69°39' E 018°58'0 0.0
2020-Jan-16 02:59N 69°39' E 018°58'0 0.0
2020-Jan-16 02:29N 69°39' E 018°58'0 0.0
2020-Jan-16 01:29N 69°39' E 018°58'0 0.0
2020-Jan-15 23:29N 69°39' E 018°58'0 0.0
2020-Jan-15 22:29N 69°39' E 018°58'0 0.0
2020-Jan-15 19:59N 69°39' E 018°58'0 0.0
2020-Jan-15 19:29N 69°39' E 018°58'0 0.0
2020-Jan-15 17:59N 69°39' E 018°58'0 0.0
2020-Jan-15 13:59N 69°39' E 018°58'0 0.1
2020-Jan-15 12:30N 69°39' E 018°58'1515.1
2020-Jan-15 11:30N 69°31' E 018°21'2713.6
2020-Jan-15 09:31N 69°08' E 017°41'1818.1
2020-Jan-15 08:31N 68°56' E 017°04'5916.7
2020-Jan-15 05:00N 68°10' E 015°23'2818.7
2020-Jan-15 03:30N 67°52' E 014°25'1918.9
2020-Jan-15 02:30N 67°36' E 013°57'1918.8
2020-Jan-15 01:30N 67°21' E 013°29'2818.5
2020-Jan-15 00:00N 66°53' E 013°20'4016.0
2020-Jan-14 21:31N 66°17' E 012°39'917.2
2020-Jan-14 21:00N 66°17' E 012°18'2918.9
2020-Jan-14 19:30N 66°10' E 011°09'1817.5
2020-Jan-14 18:30N 65°55' E 010°50'917.9
2020-Jan-14 18:00N 65°46' E 010°43'918.1
2020-Jan-14 17:30N 65°38' E 010°35'918.2
2020-Jan-14 17:00N 65°29' E 010°27'3718.6
2020-Jan-14 15:00N 64°55' E 009°53'918.4
2020-Jan-14 14:30N 64°46' E 009°56'1918.5
2020-Jan-14 13:30N 64°28' E 010°07'14 9.5
2020-Jan-14 12:00N 64°14' E 010°16'917.9
2020-Jan-14 11:30N 64°07' E 010°03'1019.7
2020-Jan-14 11:00N 64°02' E 009°44'1918.3
2020-Jan-14 09:59N 63°48' E 009°17'3915.9
2020-Jan-14 07:30N 63°19' E 008°16'2718.2
2020-Jan-14 06:00N 63°13' E 007°17'918.5
2020-Jan-14 05:30N 63°09' E 006°59'5813.0
2020-Jan-14 01:00N 62°27' E 005°31'5011.2
2020-Jan-13 20:30N 61°40' E 004°49'17 6.8
2020-Jan-13 18:00N 61°23' E 004°49'8 7.9
2020-Jan-13 16:59N 61°16' E 004°53'46 9.3
2020-Jan-13 12:00N 61°06' E 006°27'7 7.0
2020-Jan-13 10:59N 61°12' E 006°36'24 8.0
2020-Jan-13 08:00N 61°08' E 005°47'14 9.2
2020-Jan-13 06:30N 61°04' E 005°20'14 9.0
2020-Jan-13 05:00N 61°02' E 004°53'5 9.8
2020-Jan-13 04:30N 60°59' E 004°45'510.7
2020-Jan-13 04:00N 60°54' E 004°41'5 9.6
2020-Jan-13 03:30N 60°49' E 004°43'15 9.9
2020-Jan-13 02:00N 60°35' E 004°55'510.2
2020-Jan-13 01:30N 60°30' E 004°58'1110.8
2020-Jan-13 00:30N 60°21' E 005°10'4010.1
2020-Jan-12 20:30N 59°42' E 005°25'2211.1
2020-Jan-12 18:30N 59°22' E 005°06'1413.9
2020-Jan-12 17:30N 59°08' E 005°09'1312.5
2020-Jan-12 16:31N 59°05' E 005°33'612.5
2020-Jan-12 16:01N 59°00' E 005°41'2 4.0
2020-Jan-12 15:28N 58°59' E 005°43'0 0.0
2020-Jan-12 12:28N 58°59' E 005°43'0 0.0
2020-Jan-12 11:28N 58°59' E 005°43'0 0.0
2020-Jan-12 10:28N 58°59' E 005°43'0 0.0
2020-Jan-12 08:58N 58°59' E 005°43'0 0.0
2020-Jan-12 08:28N 58°59' E 005°43'0 0.0
2020-Jan-12 07:00N 58°59' E 005°43'33 8.2
2020-Jan-12 03:00N 58°31' E 005°09'3115.5
2020-Jan-12 01:00N 58°00' E 005°01'1515.1
2020-Jan-11 23:59N 57°45' E 004°55'1515.1
2020-Jan-11 23:01N 57°31' E 004°48'815.1
2020-Jan-11 22:30N 57°23' E 004°44'28014.8
2020-Jan-11 03:30N 52°53' E 002°33'919.1
2020-Jan-11 03:00N 52°45' E 002°27'1019.4
2020-Jan-11 02:31N 52°36' E 002°21'1919.3
2020-Jan-11 01:30N 52°18' E 002°08'2818.5
2020-Jan-11 00:00N 51°53' E 001°48'917.2
2020-Jan-10 23:31N 51°45' E 001°49'57 9.5
2020-Jan-10 17:31N 51°27' E 000°22'0 0.0
2020-Jan-10 17:01N 51°27' E 000°22'0 0.0
2020-Jan-10 15:31N 51°27' E 000°22'0 0.0
2020-Jan-10 12:31N 51°27' E 000°22'0 0.0
2020-Jan-10 10:31N 51°27' E 000°22'0 0.0
2020-Jan-10 08:31N 51°27' E 000°22'0 0.0
2020-Jan-10 08:01N 51°27' E 000°22'0 0.0
2020-Jan-10 07:31N 51°27' E 000°22'0 0.0
2020-Jan-10 07:01N 51°27' E 000°22'0 0.0
2020-Jan-10 06:31N 51°27' E 000°22'40 7.9
2020-Jan-10 01:31N 51°28' E 001°26'5 9.6
2020-Jan-10 01:01N 51°25' E 001°31'3011.8
2020-Jan-09 22:30N 50°55' E 001°25'7214.1
2020-Jan-09 17:24N 50°26' W 000°19'  
Track history (hours):
 
Tides and Currents Weather Stations Pressure Air Temp Water Temp Dewpoint Dewpoint Depression Visibility Wind Speed Wind Dir Waves Ship Positions

Viking Star

Last reported at 2020-Jan-19 16:29 UTC. Time now 2020-Jan-19 16:39 UTC.
Position N 68°26' E 017°25'.

Length 228 m; draft 6.8 m.

Type: Passenger vessel. MMSI: 257903000.

Date/timePositionNaut miles runAvg speedWind from/ knotsBaromVisibWave heightAir tempDewpointWater temp
2020-Jan-19 16:29N 68°26' E 017°25'0 0.0
2020-Jan-19 12:59N 68°26' E 017°25'0 0.0
2020-Jan-19 10:59N 68°26' E 017°25'0 0.0
2020-Jan-19 10:29N 68°26' E 017°25'0 0.0
2020-Jan-19 09:59N 68°26' E 017°25'0 0.0
2020-Jan-19 08:29N 68°26' E 017°25'1 0.5
2020-Jan-19 06:30N 68°26' E 017°22'2110.7
2020-Jan-19 04:30N 68°25' E 016°25'8 8.2
2020-Jan-19 03:30N 68°25' E 016°02'2811.1
2020-Jan-19 01:00N 68°47' E 016°48'815.2
2020-Jan-19 00:30N 68°54' E 016°59'3212.9
2020-Jan-18 22:00N 69°18' E 017°58'611.5
2020-Jan-18 21:30N 69°23' E 018°06'1313.0
2020-Jan-18 20:30N 69°32' E 018°32'1312.6
2020-Jan-18 19:30N 69°42' E 018°55'2516.3
2020-Jan-18 18:00N 69°55' E 019°56'917.0
2020-Jan-18 17:30N 69°60' E 020°16'1615.9
2020-Jan-18 16:30N 70°07' E 020°58'1616.4
2020-Jan-18 15:30N 70°19' E 021°28'816.2
2020-Jan-18 15:00N 70°24' E 021°48'2718.0
2020-Jan-18 13:30N 70°12' E 023°00'15 5.0
2020-Jan-18 10:29N 69°59' E 023°20'0 0.0
2020-Jan-18 09:59N 69°59' E 023°20'0 0.0
2020-Jan-18 06:29N 69°59' E 023°20'0 0.0
2020-Jan-18 05:59N 69°59' E 023°20'0 0.0
2020-Jan-18 03:59N 69°59' E 023°20'0 0.0
2020-Jan-18 01:59N 69°59' E 023°20'0 0.0
2020-Jan-18 00:59N 69°59' E 023°20'0 0.0
2020-Jan-17 23:59N 69°59' E 023°20'0 0.0
2020-Jan-17 19:59N 69°59' E 023°20'0 0.0
2020-Jan-17 18:29N 69°59' E 023°20'0 0.0
2020-Jan-17 17:29N 69°59' E 023°20'0 0.0
2020-Jan-17 16:29N 69°59' E 023°20'0 0.0
2020-Jan-17 14:59N 69°59' E 023°20'0 0.0
2020-Jan-17 11:29N 69°59' E 023°20'0 0.0
2020-Jan-17 08:29N 69°59' E 023°20'0 0.0
2020-Jan-17 07:00N 69°59' E 023°20'12 6.1
2020-Jan-17 05:00N 70°10' E 023°03'713.8
2020-Jan-17 04:30N 70°14' E 022°48'816.0
2020-Jan-17 04:00N 70°17' E 022°25'2114.1
2020-Jan-17 02:30N 70°17' E 021°22'3517.8
2020-Jan-17 00:30N 69°55' E 019°60'27 3.8
2020-Jan-16 17:26N 69°39' E 018°58'0 0.0
2020-Jan-16 16:59N 69°39' E 018°58'0 0.0
2020-Jan-16 13:59N 69°39' E 018°58'0 0.0
2020-Jan-16 12:59N 69°39' E 018°58'0 0.0
2020-Jan-16 12:29N 69°39' E 018°58'0 0.0
2020-Jan-16 11:59N 69°39' E 018°58'0 0.0
2020-Jan-16 10:59N 69°39' E 018°58'0 0.0
2020-Jan-16 09:29N 69°39' E 018°58'0 0.0
2020-Jan-16 08:29N 69°39' E 018°58'0 0.0
2020-Jan-16 04:29N 69°39' E 018°58'0 0.0
2020-Jan-16 03:59N 69°39' E 018°58'0 0.0
2020-Jan-16 02:59N 69°39' E 018°58'0 0.0
2020-Jan-16 02:29N 69°39' E 018°58'0 0.0
2020-Jan-16 01:29N 69°39' E 018°58'0 0.0
2020-Jan-15 23:29N 69°39' E 018°58'0 0.0
2020-Jan-15 22:29N 69°39' E 018°58'0 0.0
2020-Jan-15 19:59N 69°39' E 018°58'0 0.0
2020-Jan-15 19:29N 69°39' E 018°58'0 0.0
2020-Jan-15 17:59N 69°39' E 018°58'0 0.0
2020-Jan-15 13:59N 69°39' E 018°58'0 0.1
2020-Jan-15 12:30N 69°39' E 018°58'1515.1
2020-Jan-15 11:30N 69°31' E 018°21'2713.6
2020-Jan-15 09:31N 69°08' E 017°41'1818.1
2020-Jan-15 08:31N 68°56' E 017°04'5916.7
2020-Jan-15 05:00N 68°10' E 015°23'2818.7
2020-Jan-15 03:30N 67°52' E 014°25'1918.9
2020-Jan-15 02:30N 67°36' E 013°57'1918.8
2020-Jan-15 01:30N 67°21' E 013°29'2818.5
2020-Jan-15 00:00N 66°53' E 013°20'4016.0
2020-Jan-14 21:31N 66°17' E 012°39'917.2
2020-Jan-14 21:00N 66°17' E 012°18'2918.9
2020-Jan-14 19:30N 66°10' E 011°09'1817.5
2020-Jan-14 18:30N 65°55' E 010°50'917.9
2020-Jan-14 18:00N 65°46' E 010°43'918.1
2020-Jan-14 17:30N 65°38' E 010°35'918.2
2020-Jan-14 17:00N 65°29' E 010°27'3718.6
2020-Jan-14 15:00N 64°55' E 009°53'918.4
2020-Jan-14 14:30N 64°46' E 009°56'1918.5
2020-Jan-14 13:30N 64°28' E 010°07'14 9.5
2020-Jan-14 12:00N 64°14' E 010°16'917.9
2020-Jan-14 11:30N 64°07' E 010°03'1019.7
2020-Jan-14 11:00N 64°02' E 009°44'1918.3
2020-Jan-14 09:59N 63°48' E 009°17'3915.9
2020-Jan-14 07:30N 63°19' E 008°16'2718.2
2020-Jan-14 06:00N 63°13' E 007°17'918.5
2020-Jan-14 05:30N 63°09' E 006°59'5813.0
2020-Jan-14 01:00N 62°27' E 005°31'5011.2
2020-Jan-13 20:30N 61°40' E 004°49'17 6.8
2020-Jan-13 18:00N 61°23' E 004°49'8 7.9
2020-Jan-13 16:59N 61°16' E 004°53'46 9.3
2020-Jan-13 12:00N 61°06' E 006°27'7 7.0
2020-Jan-13 10:59N 61°12' E 006°36'24 8.0
2020-Jan-13 08:00N 61°08' E 005°47'14 9.2
2020-Jan-13 06:30N 61°04' E 005°20'14 9.0
2020-Jan-13 05:00N 61°02' E 004°53'5 9.8
2020-Jan-13 04:30N 60°59' E 004°45'510.7
2020-Jan-13 04:00N 60°54' E 004°41'5 9.6
2020-Jan-13 03:30N 60°49' E 004°43'15 9.9
2020-Jan-13 02:00N 60°35' E 004°55'510.2
2020-Jan-13 01:30N 60°30' E 004°58'1110.8
2020-Jan-13 00:30N 60°21' E 005°10'4010.1
2020-Jan-12 20:30N 59°42' E 005°25'2211.1
2020-Jan-12 18:30N 59°22' E 005°06'1413.9
2020-Jan-12 17:30N 59°08' E 005°09'1312.5
2020-Jan-12 16:31N 59°05' E 005°33'612.5
2020-Jan-12 16:01N 59°00' E 005°41'2 4.0
2020-Jan-12 15:28N 58°59' E 005°43'0 0.0
2020-Jan-12 12:28N 58°59' E 005°43'0 0.0
2020-Jan-12 11:28N 58°59' E 005°43'0 0.0
2020-Jan-12 10:28N 58°59' E 005°43'0 0.0
2020-Jan-12 08:58N 58°59' E 005°43'0 0.0
2020-Jan-12 08:28N 58°59' E 005°43'0 0.0
2020-Jan-12 07:00N 58°59' E 005°43'33 8.2
2020-Jan-12 03:00N 58°31' E 005°09'3115.5
2020-Jan-12 01:00N 58°00' E 005°01'1515.1
2020-Jan-11 23:59N 57°45' E 004°55'1515.1
2020-Jan-11 23:01N 57°31' E 004°48'815.1
2020-Jan-11 22:30N 57°23' E 004°44'28014.8
2020-Jan-11 03:30N 52°53' E 002°33'919.1
2020-Jan-11 03:00N 52°45' E 002°27'1019.4
2020-Jan-11 02:31N 52°36' E 002°21'1919.3
2020-Jan-11 01:30N 52°18' E 002°08'2818.5
2020-Jan-11 00:00N 51°53' E 001°48'917.2
2020-Jan-10 23:31N 51°45' E 001°49'57 9.5
2020-Jan-10 17:31N 51°27' E 000°22'0 0.0
2020-Jan-10 17:01N 51°27' E 000°22'0 0.0
2020-Jan-10 15:31N 51°27' E 000°22'0 0.0
2020-Jan-10 12:31N 51°27' E 000°22'0 0.0
2020-Jan-10 10:31N 51°27' E 000°22'0 0.0
2020-Jan-10 08:31N 51°27' E 000°22'0 0.0
2020-Jan-10 08:01N 51°27' E 000°22'0 0.0
2020-Jan-10 07:31N 51°27' E 000°22'0 0.0
2020-Jan-10 07:01N 51°27' E 000°22'0 0.0
2020-Jan-10 06:31N 51°27' E 000°22'40 7.9
2020-Jan-10 01:31N 51°28' E 001°26'5 9.6
2020-Jan-10 01:01N 51°25' E 001°31'3011.8
2020-Jan-09 22:30N 50°55' E 001°25'7214.1
2020-Jan-09 17:24N 50°26' W 000°19'  

Dump ship's entire track history